Time,TemperatureF,DewpointF,PressureIn,WindDirection,WindDirectionDegrees,WindSpeedMPH,WindSpeedGustMPH,Humidity,HourlyPrecipIn,Conditions,Clouds,dailyrainin,SoftwareType,DateUTC
2013-04-08 00:02:00,56.8,53.3,29.94,SE,135,0.0,-999.0,88,-99.99,,,0.00,Acu-Link.com,2013-04-08 04:02:00,
2013-04-08 00:17:00,56.7,53.5,29.94,SE,135,0.0,-999.0,89,-99.99,,,0.00,Acu-Link.com,2013-04-08 04:17:00,
2013-04-08 00:32:00,56.3,53.1,29.93,South,180,0.0,-999.0,89,-99.99,,,0.00,Acu-Link.com,2013-04-08 04:32:00,
2013-04-08 00:48:00,56.1,52.9,29.93,SSW,202,0.0,-999.0,89,-99.99,,,0.00,Acu-Link.com,2013-04-08 04:48:00,
2013-04-08 01:03:00,55.4,52.2,29.93,SSW,202,0.0,-999.0,89,-99.99,,,0.00,Acu-Link.com,2013-04-08 05:03:00,
2013-04-08 02:04:00,54.5,51.6,29.91,SE,135,0.0,-999.0,90,-99.99,,,0.00,Acu-Link.com,2013-04-08 06:04:00,
2013-04-08 02:35:00,54.0,51.4,29.90,SSW,202,0.0,-999.0,91,-99.99,,,0.00,Acu-Link.com,2013-04-08 06:35:00,
2013-04-08 02:50:00,53.4,50.8,29.90,SW,225,0.0,-999.0,91,-99.99,,,0.00,Acu-Link.com,2013-04-08 06:50:00,
2013-04-08 03:05:00,53.4,50.8,29.90,SE,135,1.7,-999.0,91,-99.99,,,0.00,Acu-Link.com,2013-04-08 07:05:00,
2013-04-08 03:51:00,53.1,50.5,29.90,SSW,202,0.0,-999.0,91,-99.99,,,0.00,Acu-Link.com,2013-04-08 07:51:00,
2013-04-08 04:06:00,52.5,49.9,29.90,SE,135,0.0,-999.0,91,-99.99,,,0.00,Acu-Link.com,2013-04-08 08:06:00,
2013-04-08 04:22:00,52.9,50.3,29.90,SE,135,0.0,-999.0,91,-99.99,,,0.00,Acu-Link.com,2013-04-08 08:22:00,
2013-04-08 04:37:00,52.2,49.7,29.90,SE,135,0.0,-999.0,91,-99.99,,,0.00,Acu-Link.com,2013-04-08 08:37:00,
2013-04-08 04:52:00,52.2,49.7,29.91,South,180,0.0,-999.0,91,-99.99,,,0.00,Acu-Link.com,2013-04-08 08:52:00,
2013-04-08 05:07:00,52.9,50.3,29.90,SSW,202,0.0,-999.0,91,-99.99,,,0.00,Acu-Link.com,2013-04-08 09:07:00,
2013-04-08 05:22:00,52.3,49.8,29.92,ESE,112,0.0,-999.0,91,-99.99,,,0.00,Acu-Link.com,2013-04-08 09:22:00,
2013-04-08 05:37:00,52.5,50.2,29.92,NE,45,0.0,-999.0,92,-99.99,,,0.00,Acu-Link.com,2013-04-08 09:37:00,
2013-04-08 05:52:00,52.5,50.2,29.92,ESE,112,0.0,-999.0,92,-99.99,,,0.00,Acu-Link.com,2013-04-08 09:52:00,
2013-04-08 06:08:00,52.5,50.2,29.92,SSE,157,0.0,-999.0,92,-99.99,,,0.00,Acu-Link.com,2013-04-08 10:08:00,
2013-04-08 06:23:00,53.2,50.9,29.93,SSE,157,0.0,-999.0,92,-99.99,,,0.00,Acu-Link.com,2013-04-08 10:23:00,
2013-04-08 06:38:00,53.4,51.1,29.93,SSW,202,0.0,-999.0,92,-99.99,,,0.00,Acu-Link.com,2013-04-08 10:38:00,
2013-04-08 06:53:00,53.1,50.8,29.94,ESE,112,0.0,-999.0,92,-99.99,,,0.00,Acu-Link.com,2013-04-08 10:53:00,
2013-04-08 07:24:00,54.1,51.8,29.95,ENE,67,1.7,-999.0,92,-99.99,,,0.00,Acu-Link.com,2013-04-08 11:24:00,
2013-04-08 07:39:00,56.5,54.2,29.95,NW,315,0.0,-999.0,92,-99.99,,,0.00,Acu-Link.com,2013-04-08 11:39:00,
2013-04-08 07:55:00,59.0,56.7,29.96,ESE,112,0.0,-999.0,92,-99.99,,,0.00,Acu-Link.com,2013-04-08 11:55:00,
2013-04-08 08:10:00,62.4,57.5,29.96,East,90,0.0,-999.0,84,-99.99,,,0.00,Acu-Link.com,2013-04-08 12:10:00,
2013-04-08 08:25:00,66.0,57.5,29.97,ESE,112,0.0,-999.0,74,-99.99,,,0.00,Acu-Link.com,2013-04-08 12:25:00,
2013-04-08 09:11:00,71.4,55.4,29.97,East,90,2.2,-999.0,57,-99.99,,,0.00,Acu-Link.com,2013-04-08 13:11:00,
2013-04-08 09:42:00,74.8,55.4,29.97,ESE,112,4.7,-999.0,51,-99.99,,,0.00,Acu-Link.com,2013-04-08 13:42:00,
2013-04-08 10:12:00,72.1,57.0,29.97,SE,135,5.8,-999.0,59,-99.99,,,0.00,Acu-Link.com,2013-04-08 14:12:00,
2013-04-08 10:27:00,72.5,56.9,29.97,ESE,112,5.3,-999.0,58,-99.99,,,0.00,Acu-Link.com,2013-04-08 14:27:00,
2013-04-08 10:43:00,72.7,56.1,29.97,ESE,112,2.2,-999.0,56,-99.99,,,0.00,Acu-Link.com,2013-04-08 14:43:00,
2013-04-08 10:58:00,72.9,57.2,29.98,SSW,202,1.7,-999.0,58,-99.99,,,0.00,Acu-Link.com,2013-04-08 14:58:00,
2013-04-08 11:14:00,73.9,57.2,29.98,SW,225,4.2,-999.0,56,-99.99,,,0.00,Acu-Link.com,2013-04-08 15:14:00,
2013-04-08 11:29:00,74.8,57.0,29.98,South,180,6.3,-999.0,54,-99.99,,,0.00,Acu-Link.com,2013-04-08 15:29:00,
2013-04-08 11:44:00,75.0,57.2,29.98,North,0,2.7,-999.0,54,-99.99,,,0.00,Acu-Link.com,2013-04-08 15:44:00,
2013-04-08 11:59:00,75.0,57.2,29.97,NE,45,3.2,-999.0,54,-99.99,,,0.00,Acu-Link.com,2013-04-08 15:59:00,
2013-04-08 12:30:00,75.6,56.2,29.97,ESE,112,5.3,-999.0,51,-99.99,,,0.00,Acu-Link.com,2013-04-08 16:30:00,
2013-04-08 12:45:00,76.3,56.8,29.96,WSW,247,4.7,-999.0,51,-99.99,,,0.00,Acu-Link.com,2013-04-08 16:45:00,
2013-04-08 13:00:00,76.1,56.1,29.96,ESE,112,4.2,-999.0,50,-99.99,,,0.00,Acu-Link.com,2013-04-08 17:00:00,
2013-04-08 13:15:00,76.1,57.2,29.96,ESE,112,5.8,-999.0,52,-99.99,,,0.00,Acu-Link.com,2013-04-08 17:15:00,
2013-04-08 14:02:00,76.3,53.4,29.94,West,270,4.7,-999.0,45,-99.99,,,0.00,Acu-Link.com,2013-04-08 18:02:00,
2013-04-08 14:17:00,76.3,52.1,29.94,NNE,22,2.7,-999.0,43,-99.99,,,0.00,Acu-Link.com,2013-04-08 18:17:00,
2013-04-08 14:32:00,76.5,54.2,29.93,NNE,22,4.2,-999.0,46,-99.99,,,0.00,Acu-Link.com,2013-04-08 18:32:00,
2013-04-08 14:47:00,77.0,56.9,29.93,SE,135,7.3,-999.0,50,-99.99,,,0.00,Acu-Link.com,2013-04-08 18:47:00,
2013-04-08 15:02:00,77.0,56.4,29.92,SW,225,4.2,-999.0,49,-99.99,,,0.00,Acu-Link.com,2013-04-08 19:02:00,
2013-04-08 15:17:00,77.2,57.1,29.92,East,90,3.7,-999.0,50,-99.99,,,0.00,Acu-Link.com,2013-04-08 19:17:00,
2013-04-08 15:33:00,76.3,56.8,29.91,South,180,2.7,-999.0,51,-99.99,,,0.00,Acu-Link.com,2013-04-08 19:33:00,
2013-04-08 15:48:00,76.1,56.6,29.92,South,180,4.2,-999.0,51,-99.99,,,0.00,Acu-Link.com,2013-04-08 19:48:00,
2013-04-08 16:03:00,75.6,56.7,29.91,NE,45,2.7,-999.0,52,-99.99,,,0.00,Acu-Link.com,2013-04-08 20:03:00,
2013-04-08 16:34:00,75.7,55.7,29.90,NE,45,7.3,-999.0,50,-99.99,,,0.00,Acu-Link.com,2013-04-08 20:34:00,
2013-04-08 17:04:00,75.4,56.5,29.90,WSW,247,4.7,-999.0,52,-99.99,,,0.00,Acu-Link.com,2013-04-08 21:04:00,
2013-04-08 17:19:00,73.9,55.7,29.89,North,0,4.2,-999.0,53,-99.99,,,0.00,Acu-Link.com,2013-04-08 21:19:00,
2013-04-08 17:35:00,74.1,56.4,29.90,West,270,4.2,-999.0,54,-99.99,,,0.00,Acu-Link.com,2013-04-08 21:35:00,
2013-04-08 17:50:00,77.4,55.6,29.89,NNW,337,3.2,-999.0,47,-99.99,,,0.00,Acu-Link.com,2013-04-08 21:50:00,
2013-04-08 18:05:00,77.7,55.3,29.90,ESE,112,2.7,-999.0,46,-99.99,,,0.00,Acu-Link.com,2013-04-08 22:05:00,
2013-04-08 18:20:00,76.8,55.6,29.90,ESE,112,3.7,-999.0,48,-99.99,,,0.00,Acu-Link.com,2013-04-08 22:20:00,
2013-04-08 18:36:00,75.0,56.7,29.90,SE,135,7.8,-999.0,53,-99.99,,,0.00,Acu-Link.com,2013-04-08 22:36:00,
2013-04-08 19:06:00,71.4,57.7,29.91,West,270,2.2,-999.0,62,-99.99,,,0.00,Acu-Link.com,2013-04-08 23:06:00,
2013-04-08 19:22:00,71.1,57.4,29.90,ESE,112,4.2,-999.0,62,-99.99,,,0.00,Acu-Link.com,2013-04-08 23:22:00,
2013-04-08 19:37:00,69.1,57.7,29.90,ESE,112,2.7,-999.0,67,-99.99,,,0.00,Acu-Link.com,2013-04-08 23:37:00,
2013-04-08 19:52:00,67.8,57.3,29.91,SSE,157,0.0,-999.0,69,-99.99,,,0.00,Acu-Link.com,2013-04-08 23:52:00,
2013-04-08 20:08:00,66.9,57.6,29.91,SW,225,0.0,-999.0,72,-99.99,,,0.00,Acu-Link.com,2013-04-09 00:08:00,
2013-04-08 20:23:00,65.7,57.6,29.91,South,180,0.0,-999.0,75,-99.99,,,0.00,Acu-Link.com,2013-04-09 00:23:00,
2013-04-08 20:54:00,64.8,57.1,29.91,South,180,1.7,-999.0,76,-99.99,,,0.00,Acu-Link.com,2013-04-09 00:54:00,
2013-04-08 21:09:00,64.0,57.0,29.92,SSE,157,2.2,-999.0,78,-99.99,,,0.00,Acu-Link.com,2013-04-09 01:09:00,
2013-04-08 21:24:00,64.0,57.0,29.92,ENE,67,1.7,-999.0,78,-99.99,,,0.00,Acu-Link.com,2013-04-09 01:24:00,
2013-04-08 21:39:00,63.7,57.1,29.92,South,180,0.0,-999.0,79,-99.99,,,0.00,Acu-Link.com,2013-04-09 01:39:00,
2013-04-08 21:55:00,63.1,57.2,29.93,West,270,0.0,-999.0,81,-99.99,,,0.00,Acu-Link.com,2013-04-09 01:55:00,
2013-04-08 22:10:00,63.0,57.4,29.93,WSW,247,0.0,-999.0,82,-99.99,,,0.00,Acu-Link.com,2013-04-09 02:10:00,
2013-04-08 22:25:00,63.1,58.2,29.94,West,270,0.0,-999.0,84,-99.99,,,0.00,Acu-Link.com,2013-04-09 02:25:00,
2013-04-08 22:41:00,63.3,58.0,29.93,SW,225,0.0,-999.0,83,-99.99,,,0.00,Acu-Link.com,2013-04-09 02:41:00,
2013-04-08 23:11:00,63.1,58.5,29.93,ESE,112,2.7,-999.0,85,-99.99,,,0.00,Acu-Link.com,2013-04-09 03:11:00,
2013-04-08 23:27:00,63.1,58.2,29.94,SSE,157,0.0,-999.0,84,-99.99,,,0.00,Acu-Link.com,2013-04-09 03:27:00,
2013-04-08 23:42:00,62.6,57.7,29.94,ESE,112,1.1,-999.0,84,-99.99,,,0.00,Acu-Link.com,2013-04-09 03:42:00,
2013-04-08 23:57:00,62.2,57.6,29.93,West,270,0.0,-999.0,85,-99.99,,,0.00,Acu-Link.com,2013-04-09 03:57:00,